sensor_id;sensor_type;location;lat;lon;timestamp;P1;durP1;ratioP1;P2;durP2;ratioP2
79346;SDS011;68815;48.810;44.482;2023-04-21T00:02:43;13.7;;;2.3;;
79346;SDS011;68815;48.810;44.482;2023-04-21T00:05:45;10.8;;;2.3;;
79346;SDS011;68815;48.810;44.482;2023-04-21T00:08:47;12.6;;;2.3;;
79346;SDS011;68815;48.810;44.482;2023-04-21T00:15:20;11;;;2.3;;
79346;SDS011;68815;48.810;44.482;2023-04-21T00:18:21;12.4;;;2.4;;
79346;SDS011;68815;48.810;44.482;2023-04-21T00:21:23;16.6;;;2.4;;
79346;SDS011;68815;48.810;44.482;2023-04-21T00:24:24;10;;;2.3;;
79346;SDS011;68815;48.810;44.482;2023-04-21T00:27:25;16.9;;;2.6;;
79346;SDS011;68815;48.810;44.482;2023-04-21T00:30:27;15.7;;;2.6;;
79346;SDS011;68815;48.810;44.482;2023-04-21T00:33:28;16.5;;;2.7;;
79346;SDS011;68815;48.810;44.482;2023-04-21T00:36:30;15.2;;;2.2;;
79346;SDS011;68815;48.810;44.482;2023-04-21T00:39:31;15.5;;;2.7;;
79346;SDS011;68815;48.810;44.482;2023-04-21T00:42:32;20.6;;;2.9;;
79346;SDS011;68815;48.810;44.482;2023-04-21T00:45:34;17.4;;;2.6;;
79346;SDS011;68815;48.810;44.482;2023-04-21T00:48:36;17.3;;;3.2;;
79346;SDS011;68815;48.810;44.482;2023-04-21T00:51:37;21;;;3;;
79346;SDS011;68815;48.810;44.482;2023-04-21T00:54:39;24.8;;;3.1;;
79346;SDS011;68815;48.810;44.482;2023-04-21T00:57:40;19.8;;;2.8;;
79346;SDS011;68815;48.810;44.482;2023-04-21T01:00:42;17.6;;;3;;
79346;SDS011;68815;48.810;44.482;2023-04-21T01:03:43;25.8;;;3.3;;
79346;SDS011;68815;48.810;44.482;2023-04-21T01:06:45;20.2;;;3.4;;
79346;SDS011;68815;48.810;44.482;2023-04-21T01:09:47;20.5;;;3.1;;
79346;SDS011;68815;48.810;44.482;2023-04-21T01:12:49;16.4;;;3;;
79346;SDS011;68815;48.810;44.482;2023-04-21T01:15:51;18.3;;;3;;
79346;SDS011;68815;48.810;44.482;2023-04-21T01:18:52;20.4;;;3.4;;
79346;SDS011;68815;48.810;44.482;2023-04-21T01:21:54;17.9;;;3.5;;
79346;SDS011;68815;48.810;44.482;2023-04-21T01:24:55;19.9;;;3;;
79346;SDS011;68815;48.810;44.482;2023-04-21T01:27:57;16.5;;;2.9;;
79346;SDS011;68815;48.810;44.482;2023-04-21T01:30:59;18.3;;;3.2;;
79346;SDS011;68815;48.810;44.482;2023-04-21T01:34:02;19;;;2.7;;
79346;SDS011;68815;48.810;44.482;2023-04-21T01:37:06;16.7;;;3.3;;
79346;SDS011;68815;48.810;44.482;2023-04-21T01:40:08;16.1;;;2.7;;
79346;SDS011;68815;48.810;44.482;2023-04-21T01:43:09;22;;;3.4;;
79346;SDS011;68815;48.810;44.482;2023-04-21T01:46:11;19.8;;;3.1;;
79346;SDS011;68815;48.810;44.482;2023-04-21T01:49:12;18.7;;;3;;
79346;SDS011;68815;48.810;44.482;2023-04-21T01:52:14;13.4;;;2.7;;
79346;SDS011;68815;48.810;44.482;2023-04-21T01:55:15;16.3;;;3;;
79346;SDS011;68815;48.810;44.482;2023-04-21T01:58:17;17.5;;;3.4;;
79346;SDS011;68815;48.810;44.482;2023-04-21T02:01:18;20.9;;;3.3;;
79346;SDS011;68815;48.810;44.482;2023-04-21T02:04:20;16.3;;;2.8;;
79346;SDS011;68815;48.810;44.482;2023-04-21T02:07:21;17.9;;;3.1;;
79346;SDS011;68815;48.810;44.482;2023-04-21T02:10:23;13.9;;;2.3;;
79346;SDS011;68815;48.810;44.482;2023-04-21T02:13:24;26.1;;;3.2;;
79346;SDS011;68815;48.810;44.482;2023-04-21T02:16:26;20.1;;;2.7;;
79346;SDS011;68815;48.810;44.482;2023-04-21T02:19:28;23.5;;;3.2;;
79346;SDS011;68815;48.810;44.482;2023-04-21T02:22:29;14.1;;;2.7;;
79346;SDS011;68815;48.810;44.482;2023-04-21T02:25:31;11.2;;;2.4;;
79346;SDS011;68815;48.810;44.482;2023-04-21T02:28:32;18.7;;;2.7;;
79346;SDS011;68815;48.810;44.482;2023-04-21T02:31:33;17.4;;;3;;
79346;SDS011;68815;48.810;44.482;2023-04-21T02:34:35;9.3;;;2.4;;
79346;SDS011;68815;48.810;44.482;2023-04-21T02:37:36;14.8;;;2.3;;
79346;SDS011;68815;48.810;44.482;2023-04-21T02:40:37;13.3;;;2.6;;
79346;SDS011;68815;48.810;44.482;2023-04-21T02:43:39;13.6;;;2.6;;
79346;SDS011;68815;48.810;44.482;2023-04-21T02:46:40;11.5;;;2.3;;
79346;SDS011;68815;48.810;44.482;2023-04-21T02:49:42;16.4;;;2.5;;
79346;SDS011;68815;48.810;44.482;2023-04-21T02:52:44;14.9;;;2.9;;
79346;SDS011;68815;48.810;44.482;2023-04-21T02:59:16;13.7;;;2.6;;
79346;SDS011;68815;48.810;44.482;2023-04-21T03:02:18;11;;;2.2;;
79346;SDS011;68815;48.810;44.482;2023-04-21T03:05:19;10.5;;;2.3;;
79346;SDS011;68815;48.810;44.482;2023-04-21T03:08:21;10.6;;;2.2;;
79346;SDS011;68815;48.810;44.482;2023-04-21T03:11:22;11.7;;;2.3;;
79346;SDS011;68815;48.810;44.482;2023-04-21T03:14:23;8.9;;;2;;
79346;SDS011;68815;48.810;44.482;2023-04-21T03:17:25;10.5;;;2;;
79346;SDS011;68815;48.810;44.482;2023-04-21T03:20:26;9.6;;;2.1;;
79346;SDS011;68815;48.810;44.482;2023-04-21T03:26:59;7.8;;;1.8;;
79346;SDS011;68815;48.810;44.482;2023-04-21T03:30:00;12.8;;;2.1;;
79346;SDS011;68815;48.810;44.482;2023-04-21T03:33:02;10.2;;;1.9;;
79346;SDS011;68815;48.810;44.482;2023-04-21T03:39:34;12.8;;;1.9;;
79346;SDS011;68815;48.810;44.482;2023-04-21T03:42:36;9.7;;;2;;
79346;SDS011;68815;48.810;44.482;2023-04-21T03:45:37;9.3;;;2.1;;
79346;SDS011;68815;48.810;44.482;2023-04-21T03:52:10;12.7;;;2.5;;
79346;SDS011;68815;48.810;44.482;2023-04-21T03:55:11;10.7;;;2.2;;
79346;SDS011;68815;48.810;44.482;2023-04-21T03:58:13;9.7;;;1.8;;
79346;SDS011;68815;48.810;44.482;2023-04-21T04:01:14;8.9;;;2.1;;
79346;SDS011;68815;48.810;44.482;2023-04-21T04:04:15;14.1;;;2.7;;
79346;SDS011;68815;48.810;44.482;2023-04-21T04:07:17;9.8;;;1.8;;
79346;SDS011;68815;48.810;44.482;2023-04-21T04:10:19;10.5;;;2.3;;
79346;SDS011;68815;48.810;44.482;2023-04-21T04:13:21;9.1;;;1.9;;
79346;SDS011;68815;48.810;44.482;2023-04-21T04:16:22;15;;;2.6;;
79346;SDS011;68815;48.810;44.482;2023-04-21T04:19:28;18.2;;;2.6;;
79346;SDS011;68815;48.810;44.482;2023-04-21T04:22:31;15.2;;;2.5;;
79346;SDS011;68815;48.810;44.482;2023-04-21T04:25:32;10.2;;;2.5;;
79346;SDS011;68815;48.810;44.482;2023-04-21T04:28:33;11.8;;;2.2;;
79346;SDS011;68815;48.810;44.482;2023-04-21T04:31:35;10.2;;;2.3;;
79346;SDS011;68815;48.810;44.482;2023-04-21T04:34:36;9.4;;;2;;
79346;SDS011;68815;48.810;44.482;2023-04-21T04:37:38;9.3;;;2.2;;
79346;SDS011;68815;48.810;44.482;2023-04-21T04:40:39;9.7;;;2.1;;
79346;SDS011;68815;48.810;44.482;2023-04-21T04:43:41;10.7;;;2.2;;
79346;SDS011;68815;48.810;44.482;2023-04-21T04:46:43;11.7;;;2.5;;
79346;SDS011;68815;48.810;44.482;2023-04-21T04:49:44;12.5;;;2.5;;
79346;SDS011;68815;48.810;44.482;2023-04-21T04:52:45;14.4;;;2.4;;
79346;SDS011;68815;48.810;44.482;2023-04-21T04:55:47;11.1;;;2.2;;
79346;SDS011;68815;48.810;44.482;2023-04-21T04:58:48;9.7;;;2.1;;
79346;SDS011;68815;48.810;44.482;2023-04-21T05:01:49;11.2;;;2.3;;
79346;SDS011;68815;48.810;44.482;2023-04-21T05:04:51;11.7;;;2.4;;
79346;SDS011;68815;48.810;44.482;2023-04-21T05:07:52;12.4;;;2.4;;
79346;SDS011;68815;48.810;44.482;2023-04-21T05:10:53;12.8;;;2.5;;
79346;SDS011;68815;48.810;44.482;2023-04-21T05:13:55;9.6;;;2;;
79346;SDS011;68815;48.810;44.482;2023-04-21T05:16:56;12.9;;;2.1;;
79346;SDS011;68815;48.810;44.482;2023-04-21T05:19:57;10.1;;;2.4;;
79346;SDS011;68815;48.810;44.482;2023-04-21T05:23:00;12.4;;;2.2;;
79346;SDS011;68815;48.810;44.482;2023-04-21T05:26:01;9.8;;;2.5;;
79346;SDS011;68815;48.810;44.482;2023-04-21T05:29:02;13;;;3.4;;
79346;SDS011;68815;48.810;44.482;2023-04-21T05:32:04;9.8;;;2.7;;
79346;SDS011;68815;48.810;44.482;2023-04-21T05:35:05;12;;;3.1;;
79346;SDS011;68815;48.810;44.482;2023-04-21T05:38:07;12.8;;;3.5;;
79346;SDS011;68815;48.810;44.482;2023-04-21T05:41:08;12.5;;;3.2;;
79346;SDS011;68815;48.810;44.482;2023-04-21T05:44:10;10.2;;;3.4;;
79346;SDS011;68815;48.810;44.482;2023-04-21T05:47:12;10.1;;;2.8;;
79346;SDS011;68815;48.810;44.482;2023-04-21T05:50:13;13.8;;;4.8;;
79346;SDS011;68815;48.810;44.482;2023-04-21T05:53:14;12.7;;;4;;
79346;SDS011;68815;48.810;44.482;2023-04-21T05:56:16;8.9;;;2.3;;
79346;SDS011;68815;48.810;44.482;2023-04-21T05:59:17;11.8;;;3.3;;
79346;SDS011;68815;48.810;44.482;2023-04-21T06:02:19;8.5;;;3.1;;
79346;SDS011;68815;48.810;44.482;2023-04-21T06:05:20;13.1;;;3.8;;
79346;SDS011;68815;48.810;44.482;2023-04-21T06:08:22;13.4;;;4.4;;
79346;SDS011;68815;48.810;44.482;2023-04-21T06:11:24;12.8;;;3.9;;
79346;SDS011;68815;48.810;44.482;2023-04-21T06:14:25;15;;;3.3;;
79346;SDS011;68815;48.810;44.482;2023-04-21T06:17:27;12.5;;;3.8;;
79346;SDS011;68815;48.810;44.482;2023-04-21T06:20:28;14.5;;;3.6;;
79346;SDS011;68815;48.810;44.482;2023-04-21T06:23:30;10.3;;;2.6;;
79346;SDS011;68815;48.810;44.482;2023-04-21T06:26:31;11.5;;;2.9;;
79346;SDS011;68815;48.810;44.482;2023-04-21T06:29:33;9.4;;;2.5;;
79346;SDS011;68815;48.810;44.482;2023-04-21T06:32:34;9.1;;;2.2;;
79346;SDS011;68815;48.810;44.482;2023-04-21T06:35:35;15;;;3.3;;
79346;SDS011;68815;48.810;44.482;2023-04-21T06:38:37;18.6;;;5.2;;
79346;SDS011;68815;48.810;44.482;2023-04-21T06:41:38;9.8;;;3.3;;
79346;SDS011;68815;48.810;44.482;2023-04-21T06:44:39;11.3;;;3.2;;
79346;SDS011;68815;48.810;44.482;2023-04-21T06:47:41;26.4;;;5.1;;
79346;SDS011;68815;48.810;44.482;2023-04-21T06:50:42;14.9;;;3.7;;
79346;SDS011;68815;48.810;44.482;2023-04-21T06:53:43;11;;;2.9;;
79346;SDS011;68815;48.810;44.482;2023-04-21T06:56:45;14.1;;;2.9;;
79346;SDS011;68815;48.810;44.482;2023-04-21T06:59:46;13.8;;;4.2;;
79346;SDS011;68815;48.810;44.482;2023-04-21T07:02:47;18;;;6;;
79346;SDS011;68815;48.810;44.482;2023-04-21T07:05:49;17.2;;;4.2;;
79346;SDS011;68815;48.810;44.482;2023-04-21T07:08:50;15;;;3.8;;
79346;SDS011;68815;48.810;44.482;2023-04-21T07:11:52;18.6;;;6.1;;
79346;SDS011;68815;48.810;44.482;2023-04-21T07:14:54;10.6;;;3;;
79346;SDS011;68815;48.810;44.482;2023-04-21T07:17:55;8.5;;;2.9;;
79346;SDS011;68815;48.810;44.482;2023-04-21T07:20:56;10.4;;;3.2;;
79346;SDS011;68815;48.810;44.482;2023-04-21T07:23:57;12.1;;;2.6;;
79346;SDS011;68815;48.810;44.482;2023-04-21T07:26:59;11.8;;;3.5;;
79346;SDS011;68815;48.810;44.482;2023-04-21T07:30:01;14.4;;;3.4;;
79346;SDS011;68815;48.810;44.482;2023-04-21T07:33:02;10.5;;;3.3;;
79346;SDS011;68815;48.810;44.482;2023-04-21T07:36:04;8.9;;;2.6;;
79346;SDS011;68815;48.810;44.482;2023-04-21T07:39:06;11.6;;;3.3;;
79346;SDS011;68815;48.810;44.482;2023-04-21T07:42:07;11;;;3;;
79346;SDS011;68815;48.810;44.482;2023-04-21T07:45:09;8.7;;;2.7;;
79346;SDS011;68815;48.810;44.482;2023-04-21T07:48:11;8.7;;;3;;
79346;SDS011;68815;48.810;44.482;2023-04-21T07:51:12;9.9;;;2.4;;
79346;SDS011;68815;48.810;44.482;2023-04-21T07:54:14;12.3;;;4.5;;
79346;SDS011;68815;48.810;44.482;2023-04-21T07:57:16;15.7;;;4;;
79346;SDS011;68815;48.810;44.482;2023-04-21T08:00:17;9.8;;;2.9;;
79346;SDS011;68815;48.810;44.482;2023-04-21T08:03:19;10.6;;;3.3;;
79346;SDS011;68815;48.810;44.482;2023-04-21T08:06:20;9;;;3;;
79346;SDS011;68815;48.810;44.482;2023-04-21T08:09:21;9.3;;;3.1;;
79346;SDS011;68815;48.810;44.482;2023-04-21T08:12:23;9.8;;;3;;
79346;SDS011;68815;48.810;44.482;2023-04-21T08:15:24;13.5;;;3.6;;
79346;SDS011;68815;48.810;44.482;2023-04-21T08:18:25;11;;;3.3;;
79346;SDS011;68815;48.810;44.482;2023-04-21T08:21:27;9.1;;;3.5;;
79346;SDS011;68815;48.810;44.482;2023-04-21T08:24:28;10;;;3;;
79346;SDS011;68815;48.810;44.482;2023-04-21T08:27:30;15.7;;;4.6;;
79346;SDS011;68815;48.810;44.482;2023-04-21T08:30:32;11.3;;;4;;
79346;SDS011;68815;48.810;44.482;2023-04-21T08:33:33;12.5;;;4.1;;
79346;SDS011;68815;48.810;44.482;2023-04-21T08:36:35;10.6;;;4.4;;
79346;SDS011;68815;48.810;44.482;2023-04-21T08:39:36;8.6;;;2.6;;
79346;SDS011;68815;48.810;44.482;2023-04-21T08:42:37;12;;;2.3;;
79346;SDS011;68815;48.810;44.482;2023-04-21T08:45:39;8.3;;;2.5;;
79346;SDS011;68815;48.810;44.482;2023-04-21T08:48:41;6.5;;;2;;
79346;SDS011;68815;48.810;44.482;2023-04-21T08:51:42;9.3;;;2.6;;
79346;SDS011;68815;48.810;44.482;2023-04-21T08:54:44;9.2;;;3.4;;
79346;SDS011;68815;48.810;44.482;2023-04-21T08:57:46;6.5;;;2.8;;
79346;SDS011;68815;48.810;44.482;2023-04-21T09:00:48;6.7;;;3.1;;
79346;SDS011;68815;48.810;44.482;2023-04-21T09:03:49;7.1;;;3.3;;
79346;SDS011;68815;48.810;44.482;2023-04-21T09:06:51;11;;;3.1;;
79346;SDS011;68815;48.810;44.482;2023-04-21T09:09:53;9.1;;;2.7;;
79346;SDS011;68815;48.810;44.482;2023-04-21T09:12:55;9.8;;;2.7;;
79346;SDS011;68815;48.810;44.482;2023-04-21T09:15:56;11.4;;;3.3;;
79346;SDS011;68815;48.810;44.482;2023-04-21T09:18:59;12.4;;;3.2;;
79346;SDS011;68815;48.810;44.482;2023-04-21T09:22:00;9.2;;;3;;
79346;SDS011;68815;48.810;44.482;2023-04-21T09:25:02;10.9;;;3.3;;
79346;SDS011;68815;48.810;44.482;2023-04-21T09:28:06;14.9;;;4.1;;
79346;SDS011;68815;48.810;44.482;2023-04-21T09:31:16;9.8;;;3.5;;
79346;SDS011;68815;48.810;44.482;2023-04-21T09:34:19;11.7;;;3.3;;
79346;SDS011;68815;48.810;44.482;2023-04-21T09:37:23;11.8;;;3.2;;
79346;SDS011;68815;48.810;44.482;2023-04-21T09:40:25;8.6;;;3.3;;
79346;SDS011;68815;48.810;44.482;2023-04-21T09:43:26;11;;;3.2;;
79346;SDS011;68815;48.810;44.482;2023-04-21T09:46:28;17.5;;;4;;
79346;SDS011;68815;48.810;44.482;2023-04-21T09:49:34;12.7;;;3.4;;
79346;SDS011;68815;48.810;44.482;2023-04-21T09:52:36;14.2;;;3.8;;
79346;SDS011;68815;48.810;44.482;2023-04-21T09:55:39;9.7;;;3.2;;
79346;SDS011;68815;48.810;44.482;2023-04-21T09:58:45;10;;;3.2;;
79346;SDS011;68815;48.810;44.482;2023-04-21T10:01:48;8.2;;;2.9;;
79346;SDS011;68815;48.810;44.482;2023-04-21T10:04:51;10.3;;;2.7;;
79346;SDS011;68815;48.810;44.482;2023-04-21T10:07:53;9.1;;;2.3;;
79346;SDS011;68815;48.810;44.482;2023-04-21T10:10:55;9.2;;;3;;
79346;SDS011;68815;48.810;44.482;2023-04-21T10:13:57;12.2;;;3.4;;
79346;SDS011;68815;48.810;44.482;2023-04-21T10:17:03;10.5;;;2.9;;
79346;SDS011;68815;48.810;44.482;2023-04-21T10:20:06;13.6;;;4.1;;
79346;SDS011;68815;48.810;44.482;2023-04-21T10:23:08;12.8;;;3.4;;
79346;SDS011;68815;48.810;44.482;2023-04-21T10:26:10;10.6;;;3.2;;
79346;SDS011;68815;48.810;44.482;2023-04-21T10:29:12;13.7;;;2.9;;
79346;SDS011;68815;48.810;44.482;2023-04-21T10:32:16;12.9;;;3.2;;
79346;SDS011;68815;48.810;44.482;2023-04-21T10:38:59;13.6;;;2.7;;
79346;SDS011;68815;48.810;44.482;2023-04-21T10:45:19;13.8;;;2.9;;
79346;SDS011;68815;48.810;44.482;2023-04-21T10:48:20;15.2;;;2.8;;
79346;SDS011;68815;48.810;44.482;2023-04-21T10:51:22;14.1;;;3.3;;
79346;SDS011;68815;48.810;44.482;2023-04-21T10:54:23;15.7;;;2.8;;
79346;SDS011;68815;48.810;44.482;2023-04-21T10:57:27;17.3;;;3.1;;
79346;SDS011;68815;48.810;44.482;2023-04-21T11:00:32;9.5;;;2.5;;
79346;SDS011;68815;48.810;44.482;2023-04-21T11:03:33;14.8;;;2.8;;
79346;SDS011;68815;48.810;44.482;2023-04-21T11:06:35;10.6;;;2.8;;
79346;SDS011;68815;48.810;44.482;2023-04-21T11:09:37;15.8;;;2.7;;
79346;SDS011;68815;48.810;44.482;2023-04-21T11:12:39;13;;;3;;
79346;SDS011;68815;48.810;44.482;2023-04-21T11:15:41;13;;;3.2;;
79346;SDS011;68815;48.810;44.482;2023-04-21T11:18:56;15.9;;;3.4;;
79346;SDS011;68815;48.810;44.482;2023-04-21T11:21:57;10.7;;;2.6;;
79346;SDS011;68815;48.810;44.482;2023-04-21T11:24:59;12.6;;;2.7;;
79346;SDS011;68815;48.810;44.482;2023-04-21T11:28:00;14.1;;;2.9;;
79346;SDS011;68815;48.810;44.482;2023-04-21T11:31:02;11.6;;;2.7;;
79346;SDS011;68815;48.810;44.482;2023-04-21T11:34:04;10.9;;;3.5;;
79346;SDS011;68815;48.810;44.482;2023-04-21T11:37:06;17.8;;;3.5;;
79346;SDS011;68815;48.810;44.482;2023-04-21T11:40:08;14;;;3.4;;
79346;SDS011;68815;48.810;44.482;2023-04-21T11:43:10;14.8;;;2.9;;
79346;SDS011;68815;48.810;44.482;2023-04-21T11:46:12;14;;;3.4;;
79346;SDS011;68815;48.810;44.482;2023-04-21T11:49:14;13.2;;;2.9;;
79346;SDS011;68815;48.810;44.482;2023-04-21T11:52:19;11.4;;;3.2;;
79346;SDS011;68815;48.810;44.482;2023-04-21T11:55:21;15.7;;;3.3;;
79346;SDS011;68815;48.810;44.482;2023-04-21T11:58:22;15.4;;;3.3;;
79346;SDS011;68815;48.810;44.482;2023-04-21T12:01:25;17.8;;;3.2;;
79346;SDS011;68815;48.810;44.482;2023-04-21T12:04:26;14;;;3.4;;
79346;SDS011;68815;48.810;44.482;2023-04-21T12:07:28;11.3;;;3.3;;
79346;SDS011;68815;48.810;44.482;2023-04-21T12:10:30;16.8;;;3.5;;
79346;SDS011;68815;48.810;44.482;2023-04-21T12:13:31;17.8;;;3.4;;
79346;SDS011;68815;48.810;44.482;2023-04-21T12:16:35;15;;;3.1;;
79346;SDS011;68815;48.810;44.482;2023-04-21T12:19:40;15.8;;;3.3;;
79346;SDS011;68815;48.810;44.482;2023-04-21T12:22:48;17.5;;;4.2;;
79346;SDS011;68815;48.810;44.482;2023-04-21T12:25:51;17.6;;;4.8;;
79346;SDS011;68815;48.810;44.482;2023-04-21T12:28:53;21.1;;;5.5;;
79346;SDS011;68815;48.810;44.482;2023-04-21T12:31:55;20.8;;;5.6;;
79346;SDS011;68815;48.810;44.482;2023-04-21T12:34:56;21.8;;;6.1;;
79346;SDS011;68815;48.810;44.482;2023-04-21T12:37:58;19.8;;;4.4;;
79346;SDS011;68815;48.810;44.482;2023-04-21T12:40:59;14.9;;;4.2;;
79346;SDS011;68815;48.810;44.482;2023-04-21T12:44:01;16.4;;;3.7;;
79346;SDS011;68815;48.810;44.482;2023-04-21T12:47:02;14;;;3.5;;
79346;SDS011;68815;48.810;44.482;2023-04-21T12:50:04;12;;;3.1;;
79346;SDS011;68815;48.810;44.482;2023-04-21T12:53:06;13.9;;;3.6;;
79346;SDS011;68815;48.810;44.482;2023-04-21T12:56:07;10.4;;;2.9;;
79346;SDS011;68815;48.810;44.482;2023-04-21T12:59:19;13.5;;;3.3;;
79346;SDS011;68815;48.810;44.482;2023-04-21T13:02:21;13.7;;;3.8;;
79346;SDS011;68815;48.810;44.482;2023-04-21T13:05:22;20.6;;;3.8;;
79346;SDS011;68815;48.810;44.482;2023-04-21T13:08:23;12.3;;;3.1;;
79346;SDS011;68815;48.810;44.482;2023-04-21T13:11:25;11.5;;;3.1;;
79346;SDS011;68815;48.810;44.482;2023-04-21T13:14:26;15.4;;;3.3;;
79346;SDS011;68815;48.810;44.482;2023-04-21T13:17:28;18.6;;;3.2;;
79346;SDS011;68815;48.810;44.482;2023-04-21T13:20:30;17.4;;;3.2;;
79346;SDS011;68815;48.810;44.482;2023-04-21T13:23:31;12.9;;;3.3;;
79346;SDS011;68815;48.810;44.482;2023-04-21T13:26:33;14.4;;;3.4;;
79346;SDS011;68815;48.810;44.482;2023-04-21T13:29:34;13.2;;;3.4;;
79346;SDS011;68815;48.810;44.482;2023-04-21T13:32:35;14.7;;;3.5;;
79346;SDS011;68815;48.810;44.482;2023-04-21T13:35:37;16;;;3.8;;
79346;SDS011;68815;48.810;44.482;2023-04-21T13:38:38;22.3;;;4.4;;
79346;SDS011;68815;48.810;44.482;2023-04-21T13:41:40;15.7;;;4.1;;
79346;SDS011;68815;48.810;44.482;2023-04-21T13:44:41;14.5;;;3.8;;
79346;SDS011;68815;48.810;44.482;2023-04-21T13:47:42;13.9;;;3.6;;
79346;SDS011;68815;48.810;44.482;2023-04-21T13:50:44;15.7;;;4.3;;
79346;SDS011;68815;48.810;44.482;2023-04-21T13:53:46;13.6;;;3.6;;
79346;SDS011;68815;48.810;44.482;2023-04-21T13:56:47;17;;;4.4;;
79346;SDS011;68815;48.810;44.482;2023-04-21T13:59:49;15.7;;;4.4;;
79346;SDS011;68815;48.810;44.482;2023-04-21T14:02:51;13.9;;;4.4;;
79346;SDS011;68815;48.810;44.482;2023-04-21T14:05:52;16.4;;;4.5;;
79346;SDS011;68815;48.810;44.482;2023-04-21T14:08:55;15.6;;;4.6;;
79346;SDS011;68815;48.810;44.482;2023-04-21T14:11:56;15.3;;;4.8;;
79346;SDS011;68815;48.810;44.482;2023-04-21T14:14:57;13.9;;;4.3;;
79346;SDS011;68815;48.810;44.482;2023-04-21T14:17:58;18.5;;;6.2;;
79346;SDS011;68815;48.810;44.482;2023-04-21T14:24:31;13.6;;;4.2;;
79346;SDS011;68815;48.810;44.482;2023-04-21T14:27:32;13.4;;;3.9;;
79346;SDS011;68815;48.810;44.482;2023-04-21T14:30:34;15.1;;;4.1;;
79346;SDS011;68815;48.810;44.482;2023-04-21T14:33:35;14.9;;;4;;
79346;SDS011;68815;48.810;44.482;2023-04-21T14:36:37;17.6;;;4.3;;
79346;SDS011;68815;48.810;44.482;2023-04-21T14:39:38;14.1;;;3.9;;
79346;SDS011;68815;48.810;44.482;2023-04-21T14:42:40;16.9;;;3.4;;
79346;SDS011;68815;48.810;44.482;2023-04-21T14:45:41;11.6;;;3.8;;
79346;SDS011;68815;48.810;44.482;2023-04-21T14:48:43;17.6;;;4.9;;
79346;SDS011;68815;48.810;44.482;2023-04-21T14:51:45;13.7;;;4.3;;
79346;SDS011;68815;48.810;44.482;2023-04-21T14:54:46;13.2;;;3.9;;
79346;SDS011;68815;48.810;44.482;2023-04-21T14:57:48;14.4;;;3.8;;
79346;SDS011;68815;48.810;44.482;2023-04-21T15:00:49;17.9;;;3.9;;
79346;SDS011;68815;48.810;44.482;2023-04-21T15:03:50;12.9;;;4.2;;
79346;SDS011;68815;48.810;44.482;2023-04-21T15:06:52;13.2;;;3.5;;
79346;SDS011;68815;48.810;44.482;2023-04-21T15:09:53;16.6;;;3.7;;
79346;SDS011;68815;48.810;44.482;2023-04-21T15:12:54;12.6;;;3.3;;
79346;SDS011;68815;48.810;44.482;2023-04-21T15:15:56;13.4;;;3.3;;
79346;SDS011;68815;48.810;44.482;2023-04-21T15:18:57;12.4;;;2.8;;
79346;SDS011;68815;48.810;44.482;2023-04-21T15:21:59;11.9;;;2.8;;
79346;SDS011;68815;48.810;44.482;2023-04-21T15:25:01;15.8;;;3.2;;
79346;SDS011;68815;48.810;44.482;2023-04-21T15:28:03;10.6;;;2.8;;
79346;SDS011;68815;48.810;44.482;2023-04-21T15:31:04;11.5;;;2.8;;
79346;SDS011;68815;48.810;44.482;2023-04-21T15:34:06;13.1;;;2.7;;
79346;SDS011;68815;48.810;44.482;2023-04-21T15:40:34;12.3;;;3;;
79346;SDS011;68815;48.810;44.482;2023-04-21T15:43:35;12.2;;;2.8;;
79346;SDS011;68815;48.810;44.482;2023-04-21T15:46:36;13.1;;;2.7;;
79346;SDS011;68815;48.810;44.482;2023-04-21T15:49:38;11.7;;;2.9;;
79346;SDS011;68815;48.810;44.482;2023-04-21T15:52:39;13.7;;;2.9;;
79346;SDS011;68815;48.810;44.482;2023-04-21T15:55:40;11;;;3.9;;
79346;SDS011;68815;48.810;44.482;2023-04-21T15:58:42;13.2;;;2.9;;
79346;SDS011;68815;48.810;44.482;2023-04-21T16:01:44;12.9;;;2.8;;
79346;SDS011;68815;48.810;44.482;2023-04-21T16:04:45;14.8;;;3.4;;
79346;SDS011;68815;48.810;44.482;2023-04-21T16:07:47;9.9;;;3.1;;
79346;SDS011;68815;48.810;44.482;2023-04-21T16:10:48;12.9;;;3.4;;
79346;SDS011;68815;48.810;44.482;2023-04-21T16:13:49;12.3;;;3.2;;
79346;SDS011;68815;48.810;44.482;2023-04-21T16:16:51;12.6;;;2.8;;
79346;SDS011;68815;48.810;44.482;2023-04-21T16:19:52;9.7;;;2.9;;
79346;SDS011;68815;48.810;44.482;2023-04-21T16:22:54;11.5;;;3;;
79346;SDS011;68815;48.810;44.482;2023-04-21T16:25:55;14.3;;;2.8;;
79346;SDS011;68815;48.810;44.482;2023-04-21T16:28:56;17;;;3.2;;
79346;SDS011;68815;48.810;44.482;2023-04-21T16:31:58;17;;;2.9;;
79346;SDS011;68815;48.810;44.482;2023-04-21T16:34:59;12.2;;;2.8;;
79346;SDS011;68815;48.810;44.482;2023-04-21T16:38:01;14.5;;;3.2;;
79346;SDS011;68815;48.810;44.482;2023-04-21T16:41:04;12.5;;;3;;
79346;SDS011;68815;48.810;44.482;2023-04-21T16:44:05;11.7;;;3.3;;
79346;SDS011;68815;48.810;44.482;2023-04-21T16:47:06;14.6;;;3.6;;
79346;SDS011;68815;48.810;44.482;2023-04-21T16:50:08;15.2;;;3.2;;
79346;SDS011;68815;48.810;44.482;2023-04-21T16:53:10;11.4;;;3.7;;
79346;SDS011;68815;48.810;44.482;2023-04-21T16:56:11;18.2;;;4.6;;
79346;SDS011;68815;48.810;44.482;2023-04-21T16:59:12;12.8;;;3.9;;
79346;SDS011;68815;48.810;44.482;2023-04-21T17:02:14;16.5;;;5;;
79346;SDS011;68815;48.810;44.482;2023-04-21T17:05:16;17.7;;;5.2;;
79346;SDS011;68815;48.810;44.482;2023-04-21T17:08:17;16.4;;;5.2;;
79346;SDS011;68815;48.810;44.482;2023-04-21T17:11:19;12.6;;;4.7;;
79346;SDS011;68815;48.810;44.482;2023-04-21T17:14:20;11.4;;;4.7;;
79346;SDS011;68815;48.810;44.482;2023-04-21T17:17:21;13.1;;;3.9;;
79346;SDS011;68815;48.810;44.482;2023-04-21T17:20:22;16.1;;;4;;
79346;SDS011;68815;48.810;44.482;2023-04-21T17:23:25;11.8;;;3.5;;
79346;SDS011;68815;48.810;44.482;2023-04-21T17:26:26;11.7;;;3.5;;
79346;SDS011;68815;48.810;44.482;2023-04-21T17:29:27;13.5;;;4.7;;
79346;SDS011;68815;48.810;44.482;2023-04-21T17:32:29;10.9;;;3.9;;
79346;SDS011;68815;48.810;44.482;2023-04-21T17:35:30;11.6;;;3.5;;
79346;SDS011;68815;48.810;44.482;2023-04-21T17:38:31;14.9;;;3.7;;
79346;SDS011;68815;48.810;44.482;2023-04-21T17:41:33;12;;;3.1;;
79346;SDS011;68815;48.810;44.482;2023-04-21T17:44:35;11.9;;;3.1;;
79346;SDS011;68815;48.810;44.482;2023-04-21T17:47:36;8.5;;;2.8;;
79346;SDS011;68815;48.810;44.482;2023-04-21T17:50:38;10.1;;;2.8;;
79346;SDS011;68815;48.810;44.482;2023-04-21T17:53:39;11.9;;;2.6;;
79346;SDS011;68815;48.810;44.482;2023-04-21T17:56:40;10;;;2.8;;
79346;SDS011;68815;48.810;44.482;2023-04-21T17:59:43;9.9;;;2.8;;
79346;SDS011;68815;48.810;44.482;2023-04-21T18:02:44;9.3;;;2.8;;
79346;SDS011;68815;48.810;44.482;2023-04-21T18:05:46;11.2;;;2.8;;
79346;SDS011;68815;48.810;44.482;2023-04-21T18:08:47;9.9;;;2.8;;
79346;SDS011;68815;48.810;44.482;2023-04-21T18:11:48;12;;;3.1;;
79346;SDS011;68815;48.810;44.482;2023-04-21T18:14:50;11.4;;;2.6;;
79346;SDS011;68815;48.810;44.482;2023-04-21T18:17:51;12.6;;;2.9;;
79346;SDS011;68815;48.810;44.482;2023-04-21T18:20:53;10.6;;;3;;
79346;SDS011;68815;48.810;44.482;2023-04-21T18:23:54;11;;;2.9;;
79346;SDS011;68815;48.810;44.482;2023-04-21T18:26:56;10.5;;;2.7;;
79346;SDS011;68815;48.810;44.482;2023-04-21T18:29:57;10.6;;;2.8;;
79346;SDS011;68815;48.810;44.482;2023-04-21T18:32:59;14.2;;;3.2;;
79346;SDS011;68815;48.810;44.482;2023-04-21T18:36:00;8.6;;;2.7;;
79346;SDS011;68815;48.810;44.482;2023-04-21T18:39:02;9.7;;;2.7;;
79346;SDS011;68815;48.810;44.482;2023-04-21T18:42:03;11.5;;;2.9;;
79346;SDS011;68815;48.810;44.482;2023-04-21T18:45:06;11.5;;;3;;
79346;SDS011;68815;48.810;44.482;2023-04-21T18:48:07;10.3;;;3;;
79346;SDS011;68815;48.810;44.482;2023-04-21T18:51:09;9.2;;;2.7;;
79346;SDS011;68815;48.810;44.482;2023-04-21T18:54:10;11.4;;;3;;
79346;SDS011;68815;48.810;44.482;2023-04-21T18:57:12;10.3;;;2.8;;